Archival Weather

Heathrow

London, United Kingdom (EGLL)

Report from: Sunday, March 19, 2023 11:50 PM GMT
Current time: Tuesday, February 27, 2024 9:31 AM GMT

Current weather – Weather history – Daily summaries
Weather forecast

Temperature8.0°C (46.4°F)
Wind chill6.1°C (42.9°F)
Dew point4.0°C (39.2°F)
Winds 6 kts (3.1 m/s, 6.9 mph) Southwest (220°)
Visibility6.2 mi. (10 km)
Clouds Few clouds 4,900 ft. (1,494 m)
Altimeter30.09 in.Hg (1019 mB)
Relative humidity76 %
Density altitude-916 ft. (-279 m)
Remarks Fully automated report
No significant changes expected in the next two hours
Flight conditions Visual Meteorological Conditions
Raw dataEGLL 192350Z AUTO 22006KT 9999 FEW049 08/04 Q1019 NOSIG
An error has occurred. This application may no longer respond until reloaded. Reload 🗙